Report METAR

 

LIRQ - Firenze, Italy
Distance from station: NNE 20km
Dati ricevuti: 21/01/2018 20:50
Sereno
Sereno
 Vento da E
Vento: E 7 km/h
Temperatura: 10°C
Temperatura Vento: 9°C
P.to Rugiada: 1°C
Umidità: 54%
Barometro: 1011 hPa
Summary: Sereno
Visibility: superiore a 10 km
2018/01/21 19:50 LIRQ 211950Z 10004KT 060V120 CAVOK 10/01 Q1011
LIRP - Pisa, Italy
Distance from station: O 55km
Dati ricevuti: 21/01/2018 20:45
Sereno
Sereno
 Vento da SE
Vento: SE 11 km/h
Temperatura: 7°C
Temperatura Vento: 5°C
P.to Rugiada: 6°C
Umidità: 93%
Barometro: 1011 hPa
Summary: Sereno
Visibility: superiore a 10 km
2018/01/21 19:45 LIRP 211945Z 13006KT CAVOK 07/06 Q1011 NOSIG
 
LIVC - Monte Cimone, Italy
Distance from station: NNO 69km
Dati ricevuti: 21/01/2018 03:55
DATI Obsoleti
Freezing Fog
Freezing Fog
 Vento da OSO
Vento: OSO 37 km/h, Raffica: 63 km/h
Temperatura: -1°C
Temperatura Vento: -8°C
P.to Rugiada: -2°C
Umidità: 93%
Barometro: 1000 hPa
Summary: Freezing Fog
Visibility: 0 km
2018/01/21 02:55 LIVC 210255Z 24020G34KT 0200 FZFG VV/// M01/M02 Q1000 RMK MON INVIS VAL INVIS VIS MIN 0200
LIRS - Grosseto, Italy
Distance from station: S 98km
Dati ricevuti: 21/01/2018 20:55
Sereno
Sereno
 Vento da NNE
Vento: NNE 7 km/h
Temperatura: 9°C
Temperatura Vento: 8°C
P.to Rugiada: 6°C
Umidità: 82%
Barometro: 1011 hPa
Summary: Sereno
Visibility: superiore a 10 km
2018/01/21 19:55 LIRS 211955Z 02004KT CAVOK 09/06 Q1011